Latest Weather Observations for Leigh Creek

IDS60801

Issued at 3:31 pm CDT Monday 19 November 2018 (issued every 10 minutes, with the page automatically refreshed every 10 minutes)

About weather observations | Map of weather stations | Latest weather observations for SA | Other Formats
Station Details ID: 017110 Name: LEIGH CREEK AIRPORT Lat: -30.60 Lon: 138.42 Height: 258.8 m
Data from the previous 72 hours. | See also: Recent months at Leigh Creek
Date/Time
CDT
Temp
°C
App
Temp
°C
Dew
Point
°C
Rel
Hum
%
Delta-T
°C
Wind Press
QNH
hPa
Press
MSL
hPa
Rain since
9am
mm
Dir  Spd
km/h
Gust
km/h
Spd
kts
Gust
kts
19/03:30pm 36.3 32.4 -7.0 6 19.6 NNW 6 17 3 9 1007.5 1006.3 0.0
19/03:00pm 36.6 30.6 -6.8 6 19.7 N 17 32 9 17 1008.0 1006.8 0.0
19/02:30pm 35.9 30.2 -7.2 6 19.3 N 15 37 8 20 1008.3 1007.1 0.0
19/02:00pm 35.6 29.1 -7.5 6 19.2 NW 19 28 10 15 1008.9 1007.7 0.0
19/01:30pm 36.0 29.0 -7.2 6 19.4 NNW 22 35 12 19 1009.3 1008.1 0.0
19/01:00pm 36.3 29.7 -7.0 6 19.5 N 20 32 11 17 1009.6 1008.4 0.0
19/12:30pm 35.8 28.4 -7.3 6 19.3 NNW 24 33 13 18 1009.9 1008.7 0.0
19/12:00pm 34.8 27.7 -8.0 6 18.8 NNE 22 39 12 21 1010.4 1009.2 0.0
19/11:30am 34.8 27.5 -6.0 7 18.5 N 24 39 13 21 1010.5 1009.3 0.0
19/11:00am 34.5 28.0 -6.3 7 18.3 N 20 37 11 20 1010.7 1009.5 0.0
19/10:30am 33.8 26.8 -6.8 7 18.0 N 22 32 12 17 1010.9 1009.7 0.0
19/10:00am 33.3 26.9 -5.4 8 17.5 NNE 20 30 11 16 1010.9 1009.7 0.0
19/09:30am 32.4 25.5 -6.0 8 17.1 NNE 22 28 12 15 1011.0 1009.8 0.0
19/09:00am 31.1 23.9 -5.5 9 16.2 NE 24 33 13 18 1011.2 1010.0 0.0
19/08:30am 27.7 25.1 -5.4 11 14.3 CALM 0 2 0 1 1011.3 1010.1 0.0
19/08:00am 23.6 20.4 -3.7 16 11.7 E 4 7 2 4 1011.2 1010.0 0.0
19/07:30am 23.9 20.0 -4.3 15 12.0 E 7 11 4 6 1011.3 1010.1 0.0
19/07:00am 22.4 17.7 -4.6 16 11.3 E 11 15 6 8 1011.2 1010.0 0.0
19/06:30am 19.6 14.9 -4.6 19 9.9 E 11 15 6 8 1011.0 1009.8 0.0
19/06:00am 18.1 14.3 -3.9 22 9.0 E 7 11 4 6 1011.0 1009.8 0.0
19/05:30am 19.7 13.9 -4.5 19 9.9 E 17 20 9 11 1010.6 1009.4 0.0
19/05:00am 19.3 14.2 -4.9 19 9.8 ESE 13 15 7 8 1010.7 1009.5 0.0
19/04:30am 19.5 14.5 -4.7 19 9.8 ESE 13 15 7 8 1010.9 1009.7 0.0
19/04:00am 18.8 14.8 -5.3 19 9.6 ESE 7 9 4 5 1010.9 1009.7 0.0
19/03:30am 19.8 17.2 -5.2 18 10.1 CALM 0 0 0 0 1011.0 1009.8 0.0
19/03:00am 20.5 17.9 -5.4 17 10.5 CALM 0 0 0 0 1011.2 1010.0 0.0
19/02:30am 20.5 17.9 -5.4 17 10.5 CALM 0 0 0 0 1011.3 1010.1 0.0
19/02:00am 19.9 15.6 -5.1 18 10.1 ESE 9 11 5 6 1011.7 1010.5 0.0
19/01:30am 22.2 19.2 -5.6 15 11.4 ESE 2 11 1 6 1012.0 1010.8 0.0
19/01:00am 22.5 19.9 -5.4 15 11.5 CALM 0 4 0 2 1012.5 1011.3 0.0
19/12:30am 22.4 18.6 -5.5 15 11.5 ESE 6 13 3 7 1012.6 1011.4 0.0
19/12:00am 23.7 19.8 -6.3 13 12.3 E 6 9 3 5 1012.8 1011.6 0.0
 
Date/Time
CDT
Temp
°C
App
Temp
°C
Dew
Point
°C
Rel
Hum
%
Delta-T
°C
Wind Press
QNH
hPa
Press
MSL
hPa
Rain since
9am
mm
Dir  Spd
km/h
Gust
km/h
Spd
kts
Gust
kts
18/11:30pm 22.9 18.9 -6.0 14 11.8 E 7 9 4 5 1012.8 1011.6 0.0
18/11:00pm 24.2 18.6 -5.9 13 12.5 E 15 19 8 10 1012.6 1011.4 0.0
18/10:30pm 24.8 20.3 -6.5 12 12.9 SE 9 13 5 7 1013.0 1011.8 0.0
18/10:00pm 26.1 20.5 -6.6 11 13.6 ENE 15 19 8 10 1012.8 1011.6 0.0
18/09:30pm 27.0 21.8 -5.9 11 14.0 E 13 20 7 11 1012.7 1011.5 0.0
18/09:00pm 28.1 21.7 -5.1 11 14.5 E 20 28 11 15 1012.5 1011.3 0.0
18/08:30pm 28.7 23.5 -5.9 10 14.9 SSW 13 17 7 9 1011.9 1010.7 0.0
18/08:00pm 30.1 27.4 -6.2 9 15.8 CALM 0 0 0 0 1011.7 1010.5 0.0
18/07:30pm 31.7 27.2 -6.6 8 16.8 SSW 9 17 5 9 1011.5 1010.3 0.0
18/07:00pm 32.6 28.8 -5.9 8 17.2 SSW 6 11 3 6 1011.2 1010.0 0.0
18/06:30pm 32.9 27.7 -5.7 8 17.3 SW 13 17 7 9 1011.0 1009.8 0.0
18/06:00pm 33.3 28.4 -7.1 7 17.8 SW 11 19 6 10 1011.0 1009.8 0.0
18/05:30pm 33.1 27.6 -5.5 8 17.4 WSW 15 20 8 11 1011.0 1009.8 0.0
18/05:00pm 33.7 28.4 -6.8 7 17.9 NNW 13 19 7 10 1011.1 1009.9 0.0
18/04:30pm 33.9 30.0 -4.9 8 17.8 ESE 7 13 4 7 1011.3 1010.1 0.0
18/04:00pm 33.1 29.1 -5.5 8 17.4 ENE 7 20 4 11 1011.6 1010.4 0.0
18/03:30pm 33.3 27.8 -5.4 8 17.5 NW 15 28 8 15 1011.9 1010.7 0.0
18/03:00pm 33.7 28.2 -5.1 8 17.7 NNW 15 30 8 16 1012.5 1011.3 0.0
18/02:30pm 32.1 27.8 -4.7 9 16.7 ENE 9 17 5 9 1013.0 1011.8 0.0
18/02:00pm 32.5 27.9 -4.4 9 16.8 NNW 11 20 6 11 1013.5 1012.3 0.0
18/01:30pm 32.8 27.3 -5.7 8 17.2 N 15 24 8 13 1014.1 1012.9 0.0
18/01:00pm 32.1 27.4 -4.7 9 16.7 WNW 11 24 6 13 1014.7 1013.5 0.0
18/12:30pm 31.6 27.8 -3.7 10 16.2 NNE 7 19 4 10 1015.2 1014.0 0.0
18/12:00pm 31.1 25.7 -4.1 10 16.0 N 15 24 8 13 1015.4 1014.2 0.0
18/11:30am 30.4 26.5 -4.6 10 15.7 ESE 7 13 4 7 1015.6 1014.5 0.0
18/11:00am 29.6 24.6 -3.9 11 15.1 NNE 13 22 7 12 1015.7 1014.6 0.0
18/10:30am 29.3 23.3 -3.0 12 14.7 E 19 24 10 13 1015.8 1014.7 0.0
18/10:00am 29.1 22.9 -3.2 12 14.7 E 20 30 11 16 1016.0 1014.9 0.0
18/09:30am 28.4 20.4 -2.6 13 14.1 E 30 39 16 21 1016.1 1015.0 0.0
18/09:00am 27.0 18.8 -3.7 13 13.6 E 30 39 16 21 1015.9 1014.8 0.0
18/08:30am 25.5 16.9 -3.9 14 12.8 E 32 39 17 21 1015.8 1014.7 0.0
18/08:00am 24.5 15.8 -4.7 14 12.4 E 32 43 17 23 1015.7 1014.6 0.0
18/07:30am 22.8 14.9 -4.3 16 11.4 ESE 28 37 15 20 1015.5 1014.3 0.0
18/07:00am 21.5 14.0 -4.5 17 10.8 ESE 26 35 14 19 1015.3 1014.1 0.0
18/06:30am 20.5 13.5 -3.9 19 10.1 ESE 24 32 13 17 1015.0 1013.8 0.0
18/06:00am 20.3 13.3 -3.4 20 9.9 ESE 24 32 13 17 1014.7 1013.5 0.0
18/05:30am 20.4 13.1 -2.6 21 9.8 ESE 26 32 14 17 1014.5 1013.3 0.0
18/05:00am 20.8 13.3 -1.7 22 9.8 ESE 28 35 15 19 1014.4 1013.2 0.0
18/04:30am 21.0 13.9 -1.5 22 9.9 ESE 26 35 14 19 1014.4 1013.2 0.0
18/04:00am 21.4 14.7 -1.2 22 10.0 ESE 24 32 13 17 1014.5 1013.3 0.0
18/03:30am 20.5 15.2 -0.7 24 9.4 ESE 17 19 9 10 1014.6 1013.4 0.0
18/03:00am 19.0 15.6 -0.9 26 8.7 ESE 7 11 4 6 1014.7 1013.5 0.0
18/02:30am 18.8 16.7 -1.1 26 8.6 CALM 0 0 0 0 1014.8 1013.6 0.0
18/02:00am 20.7 16.2 -0.6 24 9.5 ESE 13 17 7 9 1015.1 1013.9 0.0
18/01:30am 20.8 16.3 -0.5 24 9.5 ESE 13 15 7 8 1015.6 1014.5 0.0
18/01:00am 21.5 17.7 -1.1 22 10.0 ESE 9 11 5 6 1015.9 1014.8 0.0
18/12:30am 22.3 20.2 -1.1 21 10.4 CALM 0 0 0 0 1016.2 1015.1 0.0
18/12:00am 21.9 19.8 -0.8 22 10.2 CALM 0 0 0 0 1016.3 1015.2 0.0
 
Date/Time
CDT
Temp
°C
App
Temp
°C
Dew
Point
°C
Rel
Hum
%
Delta-T
°C
Wind Press
QNH
hPa
Press
MSL
hPa
Rain since
9am
mm
Dir  Spd
km/h
Gust
km/h
Spd
kts
Gust
kts
17/11:30pm 21.0 18.9 -0.9 23 9.7 CALM 0 0 0 0 1016.7 1015.5 0.0
17/11:00pm 22.4 19.5 -1.0 21 10.5 ESE 4 11 2 6 1016.7 1015.5 0.0
17/10:30pm 23.0 19.4 -1.8 19 11.0 ESE 7 9 4 5 1016.7 1015.5 0.0
17/10:00pm 24.3 20.0 -1.5 18 11.6 ESE 11 15 6 8 1016.6 1015.4 0.0
17/09:30pm 25.6 20.2 -1.2 17 12.3 ESE 17 20 9 11 1016.3 1015.2 0.0
17/09:00pm 26.5 20.5 -1.3 16 12.8 ESE 20 26 11 14 1016.1 1015.0 0.0
17/08:30pm 27.1 21.3 -1.7 15 13.2 ESE 19 24 10 13 1015.7 1014.6 0.0
17/08:00pm 28.3 20.0 -1.7 14 13.9 SSE 32 41 17 22 1015.3 1014.1 0.0
17/07:30pm 29.4 22.7 -4.1 11 15.0 SSW 22 28 12 15 1014.9 1013.7 0.0
17/07:00pm 30.3 24.6 -3.4 11 15.4 SSW 17 24 9 13 1014.6 1013.4 0.0
17/06:30pm 31.0 25.5 -5.5 9 16.2 WSW 15 20 8 11 1014.5 1013.3 0.0
17/06:00pm 30.9 25.8 -5.6 9 16.1 SSW 13 19 7 10 1014.5 1013.3 0.0
17/05:30pm 31.8 27.1 -4.9 9 16.5 SW 11 24 6 13 1014.6 1013.4 0.0
17/05:00pm 30.8 25.9 -7.2 8 16.3 SSW 11 17 6 9 1014.8 1013.6 0.0
17/04:30pm 31.7 27.0 -5.0 9 16.5 S 11 20 6 11 1014.9 1013.7 0.0
17/04:00pm 30.8 25.3 -5.7 9 16.1 WSW 15 24 8 13 1015.1 1013.9 0.0
17/03:30pm 30.8 25.6 -5.7 9 16.1 S 13 20 7 11 1015.3 1014.1 0.0
17/03:00pm 30.5 26.0 -3.3 11 15.5 SE 11 19 6 10 1015.7 1014.6 0.0
17/02:30pm 30.9 27.0 -1.8 12 15.4 S 9 20 5 11 1016.2 1015.1 0.0
17/02:00pm 29.9 26.0 -1.5 13 14.8 SSE 9 19 5 10 1016.8 1015.6 0.0
17/01:30pm 29.6 24.9 -1.7 13 14.6 SSW 13 28 7 15 1017.5 1016.3 0.0
17/01:00pm 29.3 26.0 0.0 15 14.1 SW 7 17 4 9 1018.1 1016.9 0.0
17/12:30pm 28.5 24.9 0.3 16 13.5 SE 9 15 5 8 1018.5 1017.3 0.0
17/12:00pm 27.4 23.9 1.0 18 12.7 S 9 20 5 11 1018.9 1017.7 0.0
17/11:30am 27.9 24.7 0.6 17 13.1 W 7 15 4 8 1019.2 1018.1 0.0
17/11:00am 26.4 22.6 1.7 20 12.0 SE 11 20 6 11 1019.4 1018.3 0.0
17/10:30am 26.0 21.6 2.7 22 11.5 ESE 15 22 8 12 1019.5 1018.4 0.0
17/10:00am 25.1 19.9 2.5 23 11.0 ESE 19 26 10 14 1019.5 1018.4 0.0
17/09:30am 24.2 18.1 2.9 25 10.4 ESE 24 30 13 16 1019.4 1018.3 0.0
17/09:00am 23.1 16.6 2.6 26 9.9 ESE 26 33 14 18 1019.4 1018.3 0.0
17/08:30am 22.4 15.9 2.5 27 9.5 ESE 26 35 14 19 1019.3 1018.2 0.0
17/08:00am 21.4 17.2 1.7 27 9.2 SE 13 19 7 10 1019.3 1018.2 0.0
17/07:30am 18.1 13.2 -0.7 28 8.1 S 15 20 8 11 1019.2 1018.1 0.0
17/07:00am 16.7 12.1 -1.4 29 7.6 S 13 17 7 9 1019.0 1017.8 0.0
17/06:30am 15.6 10.6 -1.4 31 7.1 S 15 20 8 11 1018.7 1017.5 0.0
17/06:00am 15.7 9.7 -1.8 30 7.2 S 20 24 11 13 1018.1 1016.9 0.0
17/05:30am 16.2 10.2 -1.8 29 7.5 S 20 26 11 14 1017.9 1016.7 0.0
17/05:00am 17.2 11.1 -2.4 26 8.1 SSW 20 24 11 13 1017.8 1016.6 0.0
17/04:30am 17.9 12.3 -2.9 24 8.6 S 17 22 9 12 1017.7 1016.5 0.0
17/04:00am 19.8 15.2 -0.8 25 9.1 SSE 13 24 7 13 1017.7 1016.5 0.0
17/03:30am 19.7 15.1 -4.5 19 9.9 SSE 11 19 6 10 1017.8 1016.6 0.0
17/03:00am 20.4 15.3 -5.4 17 10.4 SE 13 20 7 11 1017.8 1016.6 0.0
17/02:30am 20.3 15.7 -4.0 19 10.0 SSE 11 17 6 9 1018.0 1016.8 0.0
17/02:00am 20.7 16.5 -1.1 23 9.6 SSE 11 15 6 8 1018.1 1016.9 0.0
17/01:30am 20.6 16.6 2.9 31 8.4 S 13 19 7 10 1018.4 1017.2 0.0
17/01:00am 20.9 17.9 2.2 29 8.8 S 7 13 4 7 1018.7 1017.5 0.0
17/12:30am 23.0 19.1 1.4 24 10.2 S 11 17 6 9 1018.9 1017.7 0.0
17/12:00am 23.3 19.0 1.0 23 10.4 S 13 24 7 13 1018.9 1017.7 0.0
 
Date/Time
CDT
Temp
°C
App
Temp
°C
Dew
Point
°C
Rel
Hum
%
Delta-T
°C
Wind Press
QNH
hPa
Press
MSL
hPa
Rain since
9am
mm
Dir  Spd
km/h
Gust
km/h
Spd
kts
Gust
kts
16/11:30pm 23.6 19.0 1.3 23 10.5 S 15 22 8 12 1019.0 1017.8 0.0
16/11:00pm 23.9 18.2 0.3 21 11.0 S 20 32 11 17 1019.0 1017.8 0.0
16/10:30pm 24.1 16.7 -0.9 19 11.3 S 28 41 15 22 1019.0 1017.8 0.0
16/10:06pm 24.4 16.5 -1.4 18 11.7 S 30 48 16 26 1018.9 1017.7 0.0
16/10:00pm 24.6 15.7 -2.0 17 11.9 S 35 48 19 26 1018.7 1017.5 0.0
16/09:30pm 25.2 16.0 -4.2 14 12.7 SSW 35 48 19 26 1018.2 1017.0 0.0
16/09:00pm 25.6 16.6 -8.2 10 13.6 SSW 32 43 17 23 1017.8 1016.6 0.0
16/08:30pm 26.2 16.8 -6.5 11 13.6 SSW 35 44 19 24 1017.5 1016.3 0.0
16/08:13pm 26.8 17.7 -7.3 10 14.1 SSW 33 52 18 28 1017.3 1016.1 0.0
16/08:00pm 27.4 17.7 -9.7 8 14.8 SSW 35 46 19 25 1017.2 1016.0 0.0
16/07:30pm 28.7 21.3 -7.3 9 15.1 SSW 24 33 13 18 1016.7 1015.5 0.0
16/07:00pm 29.7 21.9 -8.0 8 15.8 SSW 26 41 14 22 1016.4 1015.3 0.0
16/06:30pm 30.4 21.8 -7.5 8 16.1 SSW 30 39 16 21 1016.1 1015.0 0.0
16/06:12pm 30.7 22.5 -7.3 8 16.3 SSW 28 46 15 25 1016.0 1014.9 0.0
16/06:00pm 30.9 23.1 -7.1 8 16.3 SSW 26 37 14 20 1015.9 1014.8 0.0
16/05:30pm 31.5 23.9 -5.2 9 16.4 SSW 26 39 14 21 1016.0 1014.9 0.0
16/05:00pm 31.8 25.0 -4.9 9 16.5 SSW 22 35 12 19 1016.1 1015.0 0.0
16/04:30pm 31.9 25.3 -3.5 10 16.3 S 22 32 12 17 1016.1 1015.0 0.0
16/04:00pm 32.1 25.9 -3.3 10 16.4 SSW 20 32 11 17 1016.4 1015.3 0.0

Other Formats:

Comma delimited format used in spreadsheet applications
http://www.bom.gov.au/fwo/IDS60801/IDS60801.94674.axf

JavaScript Object Notation format (JSON) in row-major order
http://www.bom.gov.au/fwo/IDS60801/IDS60801.94674.json